createdAt,value
2019-01-26T08:38:44.517Z,4.27
2019-01-26T08:43:51.299Z,4.10
2019-01-26T08:48:58.687Z,2.13
2019-01-26T08:54:05.078Z,2.70
2019-01-26T08:59:10.765Z,2.40
2019-01-26T09:04:26.379Z,2.17
2019-01-26T09:09:31.966Z,1.90
2019-01-26T09:14:37.574Z,1.90
2019-01-26T09:19:43.208Z,2.30
2019-01-26T09:24:48.855Z,2.20
2019-01-26T09:29:54.533Z,2.23
2019-01-26T09:35:00.445Z,2.60
2019-01-26T09:40:08.580Z,2.10
2019-01-26T09:45:16.216Z,2.13
2019-01-26T09:50:23.054Z,2.23
2019-01-26T09:55:28.731Z,2.03
2019-01-26T10:00:35.148Z,2.50
2019-01-26T10:05:40.853Z,1.73
2019-01-26T10:10:46.920Z,3.50
2019-01-26T10:15:52.554Z,2.80
2019-01-26T10:20:59.274Z,2.37
2019-01-26T10:26:07.996Z,1.87
2019-01-26T10:31:14.711Z,2.20
2019-01-26T10:36:42.219Z,3.80
2019-01-26T10:42:06.549Z,2.70
2019-01-26T10:47:14.503Z,1.80
2019-01-26T10:52:20.135Z,1.80
2019-01-26T10:57:25.710Z,1.80
2019-01-26T11:02:31.835Z,2.33
2019-01-26T11:07:37.493Z,2.23
2019-01-26T11:12:44.363Z,2.67
2019-01-26T11:17:50.095Z,2.07
2019-01-26T11:22:57.490Z,2.27
2019-01-26T11:28:03.926Z,2.20
2019-01-26T11:33:09.970Z,1.63
2019-01-26T11:38:15.663Z,1.80
2019-01-26T11:43:22.262Z,2.10
2019-01-26T11:48:31.908Z,2.00
2019-01-26T11:53:38.059Z,1.83
2019-01-26T11:58:43.659Z,2.67
2019-01-26T12:03:57.744Z,2.97
2019-01-26T12:09:06.156Z,2.77
2019-01-26T12:14:11.973Z,1.83
2019-01-26T12:19:22.337Z,1.93
2019-01-26T12:24:25.031Z,3.10
2019-01-26T12:29:30.801Z,4.23
2019-01-26T12:34:37.611Z,3.60
2019-01-26T12:39:43.721Z,3.03
2019-01-26T12:44:49.535Z,3.83
2019-01-26T12:49:58.360Z,5.60
2019-01-26T12:55:04.247Z,2.73
2019-01-26T13:00:13.392Z,3.23
2019-01-26T13:05:20.671Z,5.93
2019-01-26T13:10:30.099Z,2.90
2019-01-26T13:15:36.306Z,2.90
2019-01-26T13:20:42.049Z,2.87
2019-01-26T13:25:49.287Z,2.40
2019-01-26T13:30:55.146Z,5.10
2019-01-26T13:36:00.874Z,2.40
2019-01-26T13:41:09.597Z,4.87
2019-01-26T13:46:15.882Z,3.27
2019-01-26T13:51:23.195Z,3.60
2019-01-26T13:56:29.804Z,4.03
2019-01-26T14:01:35.677Z,2.47
2019-01-26T14:06:44.066Z,3.57
2019-01-26T14:11:49.774Z,3.50
2019-01-26T14:16:56.215Z,3.00
2019-01-26T14:22:02.668Z,1.90
2019-01-26T14:27:08.565Z,2.10
2019-01-26T14:32:14.292Z,1.90
2019-01-26T14:37:20.534Z,2.50
2019-01-26T14:42:26.279Z,2.20
2019-01-26T14:47:33.356Z,2.00
2019-01-26T14:52:41.998Z,4.47
2019-01-26T14:57:49.241Z,9.37
2019-01-26T15:02:55.639Z,3.43
2019-01-26T15:08:01.816Z,2.30
2019-01-26T15:13:08.145Z,2.00
2019-01-26T15:18:13.940Z,3.77
2019-01-26T15:23:19.698Z,3.03
2019-01-26T15:28:25.836Z,2.53
2019-01-26T15:33:33.283Z,2.53
2019-01-26T15:38:41.737Z,2.60
2019-01-26T15:43:49.131Z,2.30
2019-01-26T15:48:59.660Z,2.27
2019-01-26T15:54:06.031Z,2.00
2019-01-26T15:59:14.751Z,3.80
2019-01-26T16:04:22.144Z,5.23
2019-01-26T16:09:28.699Z,2.80
2019-01-26T16:14:34.806Z,5.10
2019-01-26T16:19:41.490Z,6.53
2019-01-26T16:24:47.439Z,5.90
2019-01-26T16:29:54.447Z,4.40
2019-01-26T16:35:00.285Z,4.10
2019-01-26T16:40:08.163Z,3.83
2019-01-26T16:45:17.190Z,3.13
2019-01-26T16:50:27.808Z,2.60
2019-01-26T16:55:36.301Z,3.03
2019-01-26T17:00:48.270Z,4.33
2019-01-26T17:05:54.350Z,5.27
2019-01-26T17:11:04.708Z,3.37
2019-01-26T17:16:10.498Z,4.93
2019-01-26T17:21:18.067Z,3.00
2019-01-26T17:26:24.979Z,3.30
2019-01-26T17:31:30.692Z,4.53
2019-01-26T17:36:39.087Z,4.17
2019-01-26T17:41:45.378Z,3.13
2019-01-26T17:46:51.180Z,4.50
2019-01-26T17:52:00.336Z,4.60
2019-01-26T17:57:08.502Z,3.33
2019-01-26T18:02:15.618Z,3.07
2019-01-26T18:07:22.467Z,2.67
2019-01-26T18:12:28.906Z,5.30
2019-01-26T18:17:34.621Z,6.63
2019-01-26T18:22:43.128Z,10.33
2019-01-26T18:27:49.362Z,4.20
2019-01-26T18:32:56.262Z,3.07
2019-01-26T18:38:06.762Z,2.67
2019-01-26T18:43:12.934Z,3.20
2019-01-26T18:48:19.154Z,3.60
2019-01-26T18:53:25.970Z,3.60
2019-01-26T18:58:33.589Z,2.60
2019-01-26T19:04:09.567Z,4.00
2019-01-26T19:09:17.866Z,2.93
2019-01-26T19:14:24.525Z,4.10
2019-01-26T19:19:31.375Z,5.13
2019-01-26T19:24:37.431Z,2.63
2019-01-26T19:29:46.687Z,4.13
2019-01-26T19:34:54.066Z,4.17
2019-01-26T19:40:01.376Z,3.43
2019-01-26T19:45:10.112Z,3.77
2019-01-26T19:50:21.204Z,3.80
2019-01-26T19:55:30.191Z,5.40
2019-01-26T20:00:44.688Z,4.80
2019-01-26T20:05:52.118Z,6.63
2019-01-26T20:11:00.420Z,8.23
2019-01-26T20:16:09.594Z,5.70
2019-01-26T20:21:17.747Z,10.87
2019-01-26T20:26:27.169Z,7.23
2019-01-26T20:31:46.151Z,9.20
2019-01-26T20:42:25.047Z,9.07
2019-01-26T20:47:31.487Z,7.10
2019-01-26T20:52:37.805Z,8.97
2019-01-26T20:57:44.979Z,11.00
2019-01-26T21:02:52.930Z,10.80
2019-01-26T21:08:01.741Z,10.30
2019-01-26T21:13:16.112Z,9.70
2019-01-26T21:18:20.704Z,11.37
2019-01-26T21:23:28.024Z,8.80
2019-01-26T21:28:34.859Z,7.17
2019-01-26T21:33:41.168Z,10.30
2019-01-26T21:38:46.940Z,7.13
2019-01-26T21:43:52.705Z,6.03
2019-01-26T21:48:58.480Z,6.40
2019-01-26T21:54:06.410Z,6.63
2019-01-26T21:59:15.161Z,6.13
2019-01-26T22:04:21.538Z,4.67
2019-01-26T22:09:30.279Z,4.63
2019-01-26T22:14:36.148Z,4.63
2019-01-26T22:19:43.465Z,6.93
2019-01-26T22:24:50.819Z,4.60
2019-01-26T22:29:57.543Z,3.73
2019-01-26T22:35:03.369Z,3.07
2019-01-26T22:40:12.662Z,2.70
2019-01-26T22:45:19.369Z,3.70
2019-01-26T22:50:25.245Z,2.63
2019-01-26T22:55:30.828Z,3.40
2019-01-26T23:01:09.456Z,3.83
2019-01-26T23:06:42.732Z,3.07
2019-01-26T23:12:20.800Z,2.70
2019-01-26T23:18:04.446Z,3.83
2019-01-26T23:23:28.114Z,3.07
2019-01-26T23:29:13.510Z,4.53
2019-01-26T23:34:19.098Z,2.27
2019-01-26T23:39:24.723Z,4.23
2019-01-26T23:44:30.325Z,3.47
2019-01-26T23:54:55.318Z,2.70
